sensor_id;sensor_type;location;lat;lon;timestamp;temperature;humidity
55091;DHT22;40985;53.180;5.800;2023-12-14T00:01:12;4.40;99.90
55091;DHT22;40985;53.180;5.800;2023-12-14T00:03:42;4.30;99.90
55091;DHT22;40985;53.180;5.800;2023-12-14T00:06:10;4.30;99.90
55091;DHT22;40985;53.180;5.800;2023-12-14T00:08:36;4.30;99.90
55091;DHT22;40985;53.180;5.800;2023-12-14T00:11:06;4.50;99.90
55091;DHT22;40985;53.180;5.800;2023-12-14T00:13:32;4.30;99.90
55091;DHT22;40985;53.180;5.800;2023-12-14T00:15:58;4.30;99.90
55091;DHT22;40985;53.180;5.800;2023-12-14T00:18:24;4.30;99.90
55091;DHT22;40985;53.180;5.800;2023-12-14T00:20:50;4.30;99.90
55091;DHT22;40985;53.180;5.800;2023-12-14T00:23:15;4.30;99.90
55091;DHT22;40985;53.180;5.800;2023-12-14T00:25:41;4.30;99.90
55091;DHT22;40985;53.180;5.800;2023-12-14T00:28:07;4.30;99.90
55091;DHT22;40985;53.180;5.800;2023-12-14T00:30:32;4.30;99.90
55091;DHT22;40985;53.180;5.800;2023-12-14T00:32:58;4.30;99.90
55091;DHT22;40985;53.180;5.800;2023-12-14T00:35:24;4.30;99.90
55091;DHT22;40985;53.180;5.800;2023-12-14T00:37:49;4.30;99.90
55091;DHT22;40985;53.180;5.800;2023-12-14T00:40:15;4.30;99.90
55091;DHT22;40985;53.180;5.800;2023-12-14T00:42:41;4.30;99.90
55091;DHT22;40985;53.180;5.800;2023-12-14T00:45:07;4.30;99.90
55091;DHT22;40985;53.180;5.800;2023-12-14T00:47:33;4.20;99.90
55091;DHT22;40985;53.180;5.800;2023-12-14T00:49:59;4.20;99.90
55091;DHT22;40985;53.180;5.800;2023-12-14T00:52:24;4.20;99.90
55091;DHT22;40985;53.180;5.800;2023-12-14T00:54:50;4.20;99.90
55091;DHT22;40985;53.180;5.800;2023-12-14T00:57:15;4.20;99.90
55091;DHT22;40985;53.180;5.800;2023-12-14T00:59:41;4.20;99.90
55091;DHT22;40985;53.180;5.800;2023-12-14T01:02:07;4.50;99.90
55091;DHT22;40985;53.180;5.800;2023-12-14T01:04:33;4.20;99.90
55091;DHT22;40985;53.180;5.800;2023-12-14T01:06:58;4.20;99.90
55091;DHT22;40985;53.180;5.800;2023-12-14T01:09:24;4.30;99.90
55091;DHT22;40985;53.180;5.800;2023-12-14T01:11:50;4.30;99.90
55091;DHT22;40985;53.180;5.800;2023-12-14T01:14:15;4.20;99.90
55091;DHT22;40985;53.180;5.800;2023-12-14T01:16:41;4.20;99.90
55091;DHT22;40985;53.180;5.800;2023-12-14T01:19:07;4.20;99.90
55091;DHT22;40985;53.180;5.800;2023-12-14T01:21:33;4.20;99.90
55091;DHT22;40985;53.180;5.800;2023-12-14T01:23:59;4.10;99.90
55091;DHT22;40985;53.180;5.800;2023-12-14T01:26:26;4.10;99.90
55091;DHT22;40985;53.180;5.800;2023-12-14T01:28:52;4.10;99.90
55091;DHT22;40985;53.180;5.800;2023-12-14T01:31:18;4.60;99.90
55091;DHT22;40985;53.180;5.800;2023-12-14T01:33:44;4.20;99.90
55091;DHT22;40985;53.180;5.800;2023-12-14T01:36:11;4.10;99.90
55091;DHT22;40985;53.180;5.800;2023-12-14T01:38:37;4.10;99.90
55091;DHT22;40985;53.180;5.800;2023-12-14T01:41:03;4.30;99.90
55091;DHT22;40985;53.180;5.800;2023-12-14T01:43:30;4.10;99.90
55091;DHT22;40985;53.180;5.800;2023-12-14T01:45:56;4.10;99.90
55091;DHT22;40985;53.180;5.800;2023-12-14T01:48:22;4.10;99.90
55091;DHT22;40985;53.180;5.800;2023-12-14T01:50:47;4.10;99.90
55091;DHT22;40985;53.180;5.800;2023-12-14T01:53:13;4.10;99.90
55091;DHT22;40985;53.180;5.800;2023-12-14T01:55:39;4.20;99.90
55091;DHT22;40985;53.180;5.800;2023-12-14T01:58:04;4.10;99.90
55091;DHT22;40985;53.180;5.800;2023-12-14T02:01:03;4.20;99.90
55091;DHT22;40985;53.180;5.800;2023-12-14T02:03:31;4.10;99.90
55091;DHT22;40985;53.180;5.800;2023-12-14T02:05:57;4.20;99.90
55091;DHT22;40985;53.180;5.800;2023-12-14T02:08:24;4.10;99.90
55091;DHT22;40985;53.180;5.800;2023-12-14T02:10:50;4.10;99.90
55091;DHT22;40985;53.180;5.800;2023-12-14T02:13:16;4.20;99.90
55091;DHT22;40985;53.180;5.800;2023-12-14T02:15:42;4.10;99.90
55091;DHT22;40985;53.180;5.800;2023-12-14T02:18:08;4.30;99.90
55091;DHT22;40985;53.180;5.800;2023-12-14T02:20:33;4.10;99.90
55091;DHT22;40985;53.180;5.800;2023-12-14T02:22:59;4.40;99.90
55091;DHT22;40985;53.180;5.800;2023-12-14T02:25:25;4.20;99.90
55091;DHT22;40985;53.180;5.800;2023-12-14T02:27:51;4.10;99.90
55091;DHT22;40985;53.180;5.800;2023-12-14T02:30:17;4.20;99.90
55091;DHT22;40985;53.180;5.800;2023-12-14T02:32:43;4.20;99.90
55091;DHT22;40985;53.180;5.800;2023-12-14T02:35:09;4.20;99.90
55091;DHT22;40985;53.180;5.800;2023-12-14T02:37:35;4.20;99.90
55091;DHT22;40985;53.180;5.800;2023-12-14T02:40:07;4.10;99.90
55091;DHT22;40985;53.180;5.800;2023-12-14T02:42:33;4.20;99.90
55091;DHT22;40985;53.180;5.800;2023-12-14T02:44:58;4.10;99.90
55091;DHT22;40985;53.180;5.800;2023-12-14T02:47:24;4.20;99.90
55091;DHT22;40985;53.180;5.800;2023-12-14T02:49:50;4.10;99.90
55091;DHT22;40985;53.180;5.800;2023-12-14T02:52:15;4.10;99.90
55091;DHT22;40985;53.180;5.800;2023-12-14T02:54:41;4.10;99.90
55091;DHT22;40985;53.180;5.800;2023-12-14T02:57:07;4.20;99.90
55091;DHT22;40985;53.180;5.800;2023-12-14T02:59:33;4.10;99.90
55091;DHT22;40985;53.180;5.800;2023-12-14T03:01:58;4.10;99.90
55091;DHT22;40985;53.180;5.800;2023-12-14T03:04:25;4.40;99.90
55091;DHT22;40985;53.180;5.800;2023-12-14T03:06:50;4.10;99.90
55091;DHT22;40985;53.180;5.800;2023-12-14T03:09:16;4.10;99.90
55091;DHT22;40985;53.180;5.800;2023-12-14T03:11:44;4.10;99.90
55091;DHT22;40985;53.180;5.800;2023-12-14T03:14:10;4.10;99.90
55091;DHT22;40985;53.180;5.800;2023-12-14T03:16:36;4.10;99.90
55091;DHT22;40985;53.180;5.800;2023-12-14T03:19:02;4.30;99.90
55091;DHT22;40985;53.180;5.800;2023-12-14T03:21:29;4.20;99.90
55091;DHT22;40985;53.180;5.800;2023-12-14T03:23:55;4.10;99.90
55091;DHT22;40985;53.180;5.800;2023-12-14T03:26:20;4.10;99.90
55091;DHT22;40985;53.180;5.800;2023-12-14T03:28:46;4.10;99.90
55091;DHT22;40985;53.180;5.800;2023-12-14T03:31:12;4.00;99.90
55091;DHT22;40985;53.180;5.800;2023-12-14T03:33:42;4.30;99.90
55091;DHT22;40985;53.180;5.800;2023-12-14T03:36:07;4.20;99.90
55091;DHT22;40985;53.180;5.800;2023-12-14T03:38:33;4.20;99.90
55091;DHT22;40985;53.180;5.800;2023-12-14T03:40:59;4.10;99.90
55091;DHT22;40985;53.180;5.800;2023-12-14T03:43:25;4.30;99.90
55091;DHT22;40985;53.180;5.800;2023-12-14T03:45:50;4.20;99.90
55091;DHT22;40985;53.180;5.800;2023-12-14T03:48:16;4.20;99.90
55091;DHT22;40985;53.180;5.800;2023-12-14T03:50:42;4.20;99.90
55091;DHT22;40985;53.180;5.800;2023-12-14T03:53:08;4.20;99.90
55091;DHT22;40985;53.180;5.800;2023-12-14T03:55:34;4.20;99.90
55091;DHT22;40985;53.180;5.800;2023-12-14T03:57:59;4.20;99.90
55091;DHT22;40985;53.180;5.800;2023-12-14T04:00:25;4.30;99.90
55091;DHT22;40985;53.180;5.800;2023-12-14T04:02:51;4.20;99.90
55091;DHT22;40985;53.180;5.800;2023-12-14T04:05:16;4.20;99.90
55091;DHT22;40985;53.180;5.800;2023-12-14T04:07:42;4.20;99.90
55091;DHT22;40985;53.180;5.800;2023-12-14T04:10:08;4.20;99.90
55091;DHT22;40985;53.180;5.800;2023-12-14T04:12:35;4.20;99.90
55091;DHT22;40985;53.180;5.800;2023-12-14T04:15:02;4.20;99.90
55091;DHT22;40985;53.180;5.800;2023-12-14T04:17:27;4.20;99.90
55091;DHT22;40985;53.180;5.800;2023-12-14T04:19:53;4.30;99.90
55091;DHT22;40985;53.180;5.800;2023-12-14T04:22:19;4.20;99.90
55091;DHT22;40985;53.180;5.800;2023-12-14T04:24:44;4.20;99.90
55091;DHT22;40985;53.180;5.800;2023-12-14T04:27:10;4.20;99.90
55091;DHT22;40985;53.180;5.800;2023-12-14T04:29:36;4.20;99.90
55091;DHT22;40985;53.180;5.800;2023-12-14T04:32:01;4.20;99.90
55091;DHT22;40985;53.180;5.800;2023-12-14T04:34:27;4.20;99.90
55091;DHT22;40985;53.180;5.800;2023-12-14T04:36:53;4.30;99.90
55091;DHT22;40985;53.180;5.800;2023-12-14T04:39:23;4.30;99.90
55091;DHT22;40985;53.180;5.800;2023-12-14T04:41:50;4.30;99.90
55091;DHT22;40985;53.180;5.800;2023-12-14T04:44:16;4.30;99.90
55091;DHT22;40985;53.180;5.800;2023-12-14T04:46:42;4.20;99.90
55091;DHT22;40985;53.180;5.800;2023-12-14T04:49:08;4.20;99.90
55091;DHT22;40985;53.180;5.800;2023-12-14T04:51:33;4.20;99.90
55091;DHT22;40985;53.180;5.800;2023-12-14T04:53:59;4.20;99.90
55091;DHT22;40985;53.180;5.800;2023-12-14T04:56:25;4.20;99.90
55091;DHT22;40985;53.180;5.800;2023-12-14T04:58:50;4.20;99.90
55091;DHT22;40985;53.180;5.800;2023-12-14T05:01:16;4.20;99.90
55091;DHT22;40985;53.180;5.800;2023-12-14T05:03:42;4.20;99.90
55091;DHT22;40985;53.180;5.800;2023-12-14T05:06:08;4.20;99.90
55091;DHT22;40985;53.180;5.800;2023-12-14T05:08:33;4.30;99.90
55091;DHT22;40985;53.180;5.800;2023-12-14T05:10:59;4.20;99.90
55091;DHT22;40985;53.180;5.800;2023-12-14T05:13:25;4.20;99.90
55091;DHT22;40985;53.180;5.800;2023-12-14T05:15:51;4.30;99.90
55091;DHT22;40985;53.180;5.800;2023-12-14T05:18:19;4.30;99.90
55091;DHT22;40985;53.180;5.800;2023-12-14T05:20:45;4.20;99.90
55091;DHT22;40985;53.180;5.800;2023-12-14T05:23:14;4.20;99.90
55091;DHT22;40985;53.180;5.800;2023-12-14T05:25:40;4.20;99.90
55091;DHT22;40985;53.180;5.800;2023-12-14T05:28:05;4.20;99.90
55091;DHT22;40985;53.180;5.800;2023-12-14T05:30:31;4.20;99.90
55091;DHT22;40985;53.180;5.800;2023-12-14T05:32:56;4.20;99.90
55091;DHT22;40985;53.180;5.800;2023-12-14T05:35:22;4.20;99.90
55091;DHT22;40985;53.180;5.800;2023-12-14T05:37:48;4.20;99.90
55091;DHT22;40985;53.180;5.800;2023-12-14T05:40:14;4.20;99.90
55091;DHT22;40985;53.180;5.800;2023-12-14T05:42:40;4.20;99.90
55091;DHT22;40985;53.180;5.800;2023-12-14T05:45:06;4.20;99.90
55091;DHT22;40985;53.180;5.800;2023-12-14T05:47:32;4.20;99.90
55091;DHT22;40985;53.180;5.800;2023-12-14T05:50:00;4.30;99.90
55091;DHT22;40985;53.180;5.800;2023-12-14T05:52:27;4.20;99.90
55091;DHT22;40985;53.180;5.800;2023-12-14T05:54:53;4.20;99.90
55091;DHT22;40985;53.180;5.800;2023-12-14T05:57:19;4.20;99.90
55091;DHT22;40985;53.180;5.800;2023-12-14T05:59:44;4.30;99.90
55091;DHT22;40985;53.180;5.800;2023-12-14T06:02:10;4.20;99.90
55091;DHT22;40985;53.180;5.800;2023-12-14T06:04:36;4.10;99.90
55091;DHT22;40985;53.180;5.800;2023-12-14T06:07:01;4.20;99.90
55091;DHT22;40985;53.180;5.800;2023-12-14T06:09:28;4.20;99.90
55091;DHT22;40985;53.180;5.800;2023-12-14T06:12:04;4.20;99.90
55091;DHT22;40985;53.180;5.800;2023-12-14T06:14:30;4.20;99.90
55091;DHT22;40985;53.180;5.800;2023-12-14T06:16:56;4.20;99.90
55091;DHT22;40985;53.180;5.800;2023-12-14T06:19:22;4.20;99.90
55091;DHT22;40985;53.180;5.800;2023-12-14T06:21:48;4.20;99.90
55091;DHT22;40985;53.180;5.800;2023-12-14T06:24:14;4.30;99.90
55091;DHT22;40985;53.180;5.800;2023-12-14T06:26:41;4.20;99.90
55091;DHT22;40985;53.180;5.800;2023-12-14T06:29:07;4.20;99.90
55091;DHT22;40985;53.180;5.800;2023-12-14T06:31:33;4.20;99.90
55091;DHT22;40985;53.180;5.800;2023-12-14T06:33:58;4.20;99.90
55091;DHT22;40985;53.180;5.800;2023-12-14T06:36:26;4.20;99.90
55091;DHT22;40985;53.180;5.800;2023-12-14T06:38:55;4.20;99.90
55091;DHT22;40985;53.180;5.800;2023-12-14T06:41:21;4.10;99.90
55091;DHT22;40985;53.180;5.800;2023-12-14T06:43:47;4.20;99.90
55091;DHT22;40985;53.180;5.800;2023-12-14T06:46:13;4.20;99.90
55091;DHT22;40985;53.180;5.800;2023-12-14T06:48:39;4.20;99.90
55091;DHT22;40985;53.180;5.800;2023-12-14T06:51:05;4.20;99.90
55091;DHT22;40985;53.180;5.800;2023-12-14T06:53:30;4.20;99.90
55091;DHT22;40985;53.180;5.800;2023-12-14T06:55:56;4.20;99.90
55091;DHT22;40985;53.180;5.800;2023-12-14T06:58:21;4.20;99.90
55091;DHT22;40985;53.180;5.800;2023-12-14T07:00:47;4.20;99.90
55091;DHT22;40985;53.180;5.800;2023-12-14T07:03:13;4.20;99.90
55091;DHT22;40985;53.180;5.800;2023-12-14T07:05:39;4.20;99.90
55091;DHT22;40985;53.180;5.800;2023-12-14T07:08:04;4.20;99.90
55091;DHT22;40985;53.180;5.800;2023-12-14T07:10:30;4.20;99.90
55091;DHT22;40985;53.180;5.800;2023-12-14T07:12:56;4.20;99.90
55091;DHT22;40985;53.180;5.800;2023-12-14T07:15:22;4.20;99.90
55091;DHT22;40985;53.180;5.800;2023-12-14T07:17:47;4.20;99.90
55091;DHT22;40985;53.180;5.800;2023-12-14T07:20:13;4.20;99.90
55091;DHT22;40985;53.180;5.800;2023-12-14T07:22:39;4.20;99.90
55091;DHT22;40985;53.180;5.800;2023-12-14T07:25:05;4.30;99.90
55091;DHT22;40985;53.180;5.800;2023-12-14T07:27:30;4.30;99.90
55091;DHT22;40985;53.180;5.800;2023-12-14T07:29:56;4.30;99.90
55091;DHT22;40985;53.180;5.800;2023-12-14T07:32:22;4.20;99.90
55091;DHT22;40985;53.180;5.800;2023-12-14T07:34:47;4.20;99.90
55091;DHT22;40985;53.180;5.800;2023-12-14T07:37:13;4.40;99.90
55091;DHT22;40985;53.180;5.800;2023-12-14T07:39:39;4.20;99.90
55091;DHT22;40985;53.180;5.800;2023-12-14T07:42:05;4.20;99.90
55091;DHT22;40985;53.180;5.800;2023-12-14T07:44:31;4.20;99.90
55091;DHT22;40985;53.180;5.800;2023-12-14T07:46:59;4.20;99.90
55091;DHT22;40985;53.180;5.800;2023-12-14T07:49:25;4.20;99.90
55091;DHT22;40985;53.180;5.800;2023-12-14T07:51:51;4.30;99.90
55091;DHT22;40985;53.180;5.800;2023-12-14T07:54:17;4.20;99.90
55091;DHT22;40985;53.180;5.800;2023-12-14T07:56:44;4.20;99.90
55091;DHT22;40985;53.180;5.800;2023-12-14T07:59:10;4.20;99.90
55091;DHT22;40985;53.180;5.800;2023-12-14T08:01:36;4.20;99.90
55091;DHT22;40985;53.180;5.800;2023-12-14T08:04:02;4.20;99.90
55091;DHT22;40985;53.180;5.800;2023-12-14T08:06:29;4.20;99.90
55091;DHT22;40985;53.180;5.800;2023-12-14T08:08:55;4.30;99.90
55091;DHT22;40985;53.180;5.800;2023-12-14T08:11:27;4.30;99.90
55091;DHT22;40985;53.180;5.800;2023-12-14T08:13:52;4.30;99.90
55091;DHT22;40985;53.180;5.800;2023-12-14T08:16:19;4.30;99.90
55091;DHT22;40985;53.180;5.800;2023-12-14T08:18:45;4.20;99.90
55091;DHT22;40985;53.180;5.800;2023-12-14T08:21:12;4.30;99.90
55091;DHT22;40985;53.180;5.800;2023-12-14T08:23:38;4.30;99.90
55091;DHT22;40985;53.180;5.800;2023-12-14T08:26:03;4.30;99.90
55091;DHT22;40985;53.180;5.800;2023-12-14T08:28:29;4.30;99.90
55091;DHT22;40985;53.180;5.800;2023-12-14T08:30:55;4.30;99.90
55091;DHT22;40985;53.180;5.800;2023-12-14T08:33:23;4.30;99.90
55091;DHT22;40985;53.180;5.800;2023-12-14T08:35:49;4.30;99.90
55091;DHT22;40985;53.180;5.800;2023-12-14T08:38:16;4.40;99.90
55091;DHT22;40985;53.180;5.800;2023-12-14T08:40:42;4.40;99.90
55091;DHT22;40985;53.180;5.800;2023-12-14T08:43:08;4.30;99.90
55091;DHT22;40985;53.180;5.800;2023-12-14T08:45:33;4.40;99.90
55091;DHT22;40985;53.180;5.800;2023-12-14T08:47:59;4.40;99.90
55091;DHT22;40985;53.180;5.800;2023-12-14T08:50:25;4.40;99.90
55091;DHT22;40985;53.180;5.800;2023-12-14T08:52:52;4.40;99.90
55091;DHT22;40985;53.180;5.800;2023-12-14T08:55:18;4.40;99.90
55091;DHT22;40985;53.180;5.800;2023-12-14T08:57:44;4.50;99.90
55091;DHT22;40985;53.180;5.800;2023-12-14T09:00:10;4.40;99.90
55091;DHT22;40985;53.180;5.800;2023-12-14T09:02:36;4.50;99.90
55091;DHT22;40985;53.180;5.800;2023-12-14T09:05:02;4.50;99.90
55091;DHT22;40985;53.180;5.800;2023-12-14T09:07:28;4.50;99.90
55091;DHT22;40985;53.180;5.800;2023-12-14T09:09:53;4.50;99.90
55091;DHT22;40985;53.180;5.800;2023-12-14T09:12:19;4.50;99.90
55091;DHT22;40985;53.180;5.800;2023-12-14T09:14:45;4.50;99.90
55091;DHT22;40985;53.180;5.800;2023-12-14T09:17:10;4.60;99.90
55091;DHT22;40985;53.180;5.800;2023-12-14T09:19:36;4.50;99.90
55091;DHT22;40985;53.180;5.800;2023-12-14T09:22:02;4.40;99.90
55091;DHT22;40985;53.180;5.800;2023-12-14T09:24:27;4.30;99.90
55091;DHT22;40985;53.180;5.800;2023-12-14T09:26:54;4.30;99.90
55091;DHT22;40985;53.180;5.800;2023-12-14T09:29:19;4.30;99.90
55091;DHT22;40985;53.180;5.800;2023-12-14T09:31:46;4.20;99.90
55091;DHT22;40985;53.180;5.800;2023-12-14T09:34:12;4.30;99.90
55091;DHT22;40985;53.180;5.800;2023-12-14T09:36:38;4.30;99.90
55091;DHT22;40985;53.180;5.800;2023-12-14T09:39:04;4.30;99.90
55091;DHT22;40985;53.180;5.800;2023-12-14T09:41:36;4.40;99.90
55091;DHT22;40985;53.180;5.800;2023-12-14T09:44:04;4.60;99.90
55091;DHT22;40985;53.180;5.800;2023-12-14T09:46:31;4.40;99.90
55091;DHT22;40985;53.180;5.800;2023-12-14T09:48:57;4.50;99.90
55091;DHT22;40985;53.180;5.800;2023-12-14T09:51:25;4.50;99.90
55091;DHT22;40985;53.180;5.800;2023-12-14T09:53:52;4.70;99.90
55091;DHT22;40985;53.180;5.800;2023-12-14T09:56:24;4.70;99.90
55091;DHT22;40985;53.180;5.800;2023-12-14T09:58:50;4.80;99.90
55091;DHT22;40985;53.180;5.800;2023-12-14T10:01:25;4.80;99.90
55091;DHT22;40985;53.180;5.800;2023-12-14T10:04:10;4.90;99.90
55091;DHT22;40985;53.180;5.800;2023-12-14T10:06:40;4.90;99.90
55091;DHT22;40985;53.180;5.800;2023-12-14T10:09:06;5.00;99.90
55091;DHT22;40985;53.180;5.800;2023-12-14T10:11:39;5.00;99.90
55091;DHT22;40985;53.180;5.800;2023-12-14T10:14:22;5.20;99.90
55091;DHT22;40985;53.180;5.800;2023-12-14T10:16:50;5.20;99.90
55091;DHT22;40985;53.180;5.800;2023-12-14T10:19:19;5.20;99.90
55091;DHT22;40985;53.180;5.800;2023-12-14T10:21:47;5.20;99.90
55091;DHT22;40985;53.180;5.800;2023-12-14T10:24:16;5.30;99.90
55091;DHT22;40985;53.180;5.800;2023-12-14T10:26:44;5.30;99.90
55091;DHT22;40985;53.180;5.800;2023-12-14T10:29:10;5.40;99.90
55091;DHT22;40985;53.180;5.800;2023-12-14T10:31:36;5.40;99.90
55091;DHT22;40985;53.180;5.800;2023-12-14T10:34:05;5.30;99.90
55091;DHT22;40985;53.180;5.800;2023-12-14T10:36:31;5.40;99.90
55091;DHT22;40985;53.180;5.800;2023-12-14T10:38:59;5.40;99.90
55091;DHT22;40985;53.180;5.800;2023-12-14T10:41:25;5.40;99.90
55091;DHT22;40985;53.180;5.800;2023-12-14T10:43:54;5.40;99.90
55091;DHT22;40985;53.180;5.800;2023-12-14T10:46:20;5.40;99.90
55091;DHT22;40985;53.180;5.800;2023-12-14T10:48:50;5.40;99.90
55091;DHT22;40985;53.180;5.800;2023-12-14T10:51:21;5.40;99.90
55091;DHT22;40985;53.180;5.800;2023-12-14T10:53:48;5.30;99.90
55091;DHT22;40985;53.180;5.800;2023-12-14T10:56:16;5.30;99.90
55091;DHT22;40985;53.180;5.800;2023-12-14T10:58:46;5.30;99.90
55091;DHT22;40985;53.180;5.800;2023-12-14T11:01:18;5.30;99.90
55091;DHT22;40985;53.180;5.800;2023-12-14T11:03:44;5.20;99.90
55091;DHT22;40985;53.180;5.800;2023-12-14T11:06:27;5.30;99.90
55091;DHT22;40985;53.180;5.800;2023-12-14T11:08:57;5.30;99.90
55091;DHT22;40985;53.180;5.800;2023-12-14T11:11:28;5.30;99.90
55091;DHT22;40985;53.180;5.800;2023-12-14T11:13:54;5.30;99.90
55091;DHT22;40985;53.180;5.800;2023-12-14T11:16:20;5.30;99.90
55091;DHT22;40985;53.180;5.800;2023-12-14T11:22:03;5.30;99.90
55091;DHT22;40985;53.180;5.800;2023-12-14T11:24:41;5.40;99.90
55091;DHT22;40985;53.180;5.800;2023-12-14T11:27:07;5.30;99.90
55091;DHT22;40985;53.180;5.800;2023-12-14T11:29:35;5.30;99.90
55091;DHT22;40985;53.180;5.800;2023-12-14T11:32:01;5.30;99.90
55091;DHT22;40985;53.180;5.800;2023-12-14T11:34:27;5.30;99.90
55091;DHT22;40985;53.180;5.800;2023-12-14T11:36:54;5.30;99.90
55091;DHT22;40985;53.180;5.800;2023-12-14T11:39:20;5.30;99.90
55091;DHT22;40985;53.180;5.800;2023-12-14T11:42:05;5.30;99.90
55091;DHT22;40985;53.180;5.800;2023-12-14T11:44:37;5.30;99.90
55091;DHT22;40985;53.180;5.800;2023-12-14T11:47:03;5.30;99.90
55091;DHT22;40985;53.180;5.800;2023-12-14T11:49:29;5.30;99.90
55091;DHT22;40985;53.180;5.800;2023-12-14T11:52:01;5.30;99.90
55091;DHT22;40985;53.180;5.800;2023-12-14T11:54:27;5.40;99.90
55091;DHT22;40985;53.180;5.800;2023-12-14T11:56:53;5.40;99.90
55091;DHT22;40985;53.180;5.800;2023-12-14T11:59:19;5.30;99.90
55091;DHT22;40985;53.180;5.800;2023-12-14T12:01:59;5.40;99.90
55091;DHT22;40985;53.180;5.800;2023-12-14T12:04:26;5.30;99.90
55091;DHT22;40985;53.180;5.800;2023-12-14T12:07:05;5.40;99.90
55091;DHT22;40985;53.180;5.800;2023-12-14T12:09:41;5.40;99.90
55091;DHT22;40985;53.180;5.800;2023-12-14T12:12:08;5.40;99.90
55091;DHT22;40985;53.180;5.800;2023-12-14T12:14:35;5.40;99.90
55091;DHT22;40985;53.180;5.800;2023-12-14T12:17:01;5.40;99.90
55091;DHT22;40985;53.180;5.800;2023-12-14T12:19:27;5.40;99.90
55091;DHT22;40985;53.180;5.800;2023-12-14T12:21:52;5.40;99.90
55091;DHT22;40985;53.180;5.800;2023-12-14T12:24:18;5.40;99.90
55091;DHT22;40985;53.180;5.800;2023-12-14T12:26:44;5.40;99.90
55091;DHT22;40985;53.180;5.800;2023-12-14T12:29:09;5.40;99.90
55091;DHT22;40985;53.180;5.800;2023-12-14T12:31:35;5.40;99.90
55091;DHT22;40985;53.180;5.800;2023-12-14T12:34:02;5.40;99.90
55091;DHT22;40985;53.180;5.800;2023-12-14T12:36:28;5.50;99.90
55091;DHT22;40985;53.180;5.800;2023-12-14T12:38:53;5.50;99.90
55091;DHT22;40985;53.180;5.800;2023-12-14T12:41:19;5.60;99.90
55091;DHT22;40985;53.180;5.800;2023-12-14T12:43:45;5.60;99.90
55091;DHT22;40985;53.180;5.800;2023-12-14T12:46:10;5.60;99.90
55091;DHT22;40985;53.180;5.800;2023-12-14T12:48:37;5.60;99.90
55091;DHT22;40985;53.180;5.800;2023-12-14T12:51:03;5.60;99.90
55091;DHT22;40985;53.180;5.800;2023-12-14T12:53:28;5.60;99.90
55091;DHT22;40985;53.180;5.800;2023-12-14T12:55:54;5.60;99.90
55091;DHT22;40985;53.180;5.800;2023-12-14T12:58:20;5.60;99.90
55091;DHT22;40985;53.180;5.800;2023-12-14T13:00:45;5.70;99.90
55091;DHT22;40985;53.180;5.800;2023-12-14T13:03:11;5.70;99.90
55091;DHT22;40985;53.180;5.800;2023-12-14T13:05:38;5.50;99.90
55091;DHT22;40985;53.180;5.800;2023-12-14T13:08:04;5.60;99.90
55091;DHT22;40985;53.180;5.800;2023-12-14T13:10:29;5.60;99.90
55091;DHT22;40985;53.180;5.800;2023-12-14T13:12:55;5.60;99.90
55091;DHT22;40985;53.180;5.800;2023-12-14T13:15:22;5.50;99.90
55091;DHT22;40985;53.180;5.800;2023-12-14T13:17:52;5.50;99.90
55091;DHT22;40985;53.180;5.800;2023-12-14T13:20:18;5.50;99.90
55091;DHT22;40985;53.180;5.800;2023-12-14T13:22:45;5.60;99.90
55091;DHT22;40985;53.180;5.800;2023-12-14T13:25:10;5.50;99.90
55091;DHT22;40985;53.180;5.800;2023-12-14T13:27:36;5.50;99.90
55091;DHT22;40985;53.180;5.800;2023-12-14T13:30:03;5.60;99.90
55091;DHT22;40985;53.180;5.800;2023-12-14T13:32:29;5.60;99.90
55091;DHT22;40985;53.180;5.800;2023-12-14T13:34:55;5.50;99.90
55091;DHT22;40985;53.180;5.800;2023-12-14T13:37:21;5.60;99.90
55091;DHT22;40985;53.180;5.800;2023-12-14T13:39:46;5.40;99.90
55091;DHT22;40985;53.180;5.800;2023-12-14T13:42:13;5.40;99.90
55091;DHT22;40985;53.180;5.800;2023-12-14T13:44:41;5.30;99.90
55091;DHT22;40985;53.180;5.800;2023-12-14T13:47:07;5.20;99.90
55091;DHT22;40985;53.180;5.800;2023-12-14T13:49:33;5.30;99.90
55091;DHT22;40985;53.180;5.800;2023-12-14T13:51:59;5.10;99.90
55091;DHT22;40985;53.180;5.800;2023-12-14T13:54:24;5.10;99.90
55091;DHT22;40985;53.180;5.800;2023-12-14T13:56:50;5.00;99.90
55091;DHT22;40985;53.180;5.800;2023-12-14T13:59:16;5.00;99.90
55091;DHT22;40985;53.180;5.800;2023-12-14T14:01:41;5.00;99.90
55091;DHT22;40985;53.180;5.800;2023-12-14T14:04:07;5.00;99.90
55091;DHT22;40985;53.180;5.800;2023-12-14T14:06:34;5.00;99.90
55091;DHT22;40985;53.180;5.800;2023-12-14T14:09:00;4.90;99.90
55091;DHT22;40985;53.180;5.800;2023-12-14T14:11:26;4.90;99.90
55091;DHT22;40985;53.180;5.800;2023-12-14T14:13:52;4.80;99.90
55091;DHT22;40985;53.180;5.800;2023-12-14T14:16:17;4.80;99.90
55091;DHT22;40985;53.180;5.800;2023-12-14T14:18:43;4.70;99.90
55091;DHT22;40985;53.180;5.800;2023-12-14T14:21:09;4.60;99.90
55091;DHT22;40985;53.180;5.800;2023-12-14T14:23:35;4.60;99.90
55091;DHT22;40985;53.180;5.800;2023-12-14T14:26:00;4.60;99.90
55091;DHT22;40985;53.180;5.800;2023-12-14T14:28:26;4.50;99.90
55091;DHT22;40985;53.180;5.800;2023-12-14T14:30:52;4.50;99.90
55091;DHT22;40985;53.180;5.800;2023-12-14T14:33:18;4.50;99.90
55091;DHT22;40985;53.180;5.800;2023-12-14T14:35:45;4.50;99.90
55091;DHT22;40985;53.180;5.800;2023-12-14T14:38:15;4.40;99.90
55091;DHT22;40985;53.180;5.800;2023-12-14T14:40:42;4.70;99.90
55091;DHT22;40985;53.180;5.800;2023-12-14T14:43:11;4.50;99.90
55091;DHT22;40985;53.180;5.800;2023-12-14T14:45:37;4.40;99.90
55091;DHT22;40985;53.180;5.800;2023-12-14T14:48:04;4.40;99.90
55091;DHT22;40985;53.180;5.800;2023-12-14T14:50:34;4.40;99.90
55091;DHT22;40985;53.180;5.800;2023-12-14T14:53:00;4.30;99.90
55091;DHT22;40985;53.180;5.800;2023-12-14T14:55:26;4.40;99.90
55091;DHT22;40985;53.180;5.800;2023-12-14T14:57:52;4.40;99.90
55091;DHT22;40985;53.180;5.800;2023-12-14T15:00:18;4.30;99.90
55091;DHT22;40985;53.180;5.800;2023-12-14T15:02:44;4.40;99.90
55091;DHT22;40985;53.180;5.800;2023-12-14T15:05:09;4.40;99.90
55091;DHT22;40985;53.180;5.800;2023-12-14T15:07:36;4.40;99.90
55091;DHT22;40985;53.180;5.800;2023-12-14T15:10:02;4.40;99.90
55091;DHT22;40985;53.180;5.800;2023-12-14T15:12:28;4.40;99.90
55091;DHT22;40985;53.180;5.800;2023-12-14T15:14:54;4.80;99.90
55091;DHT22;40985;53.180;5.800;2023-12-14T15:17:21;4.30;99.90
55091;DHT22;40985;53.180;5.800;2023-12-14T15:19:48;4.40;99.90
55091;DHT22;40985;53.180;5.800;2023-12-14T15:22:18;4.40;99.90
55091;DHT22;40985;53.180;5.800;2023-12-14T15:24:44;4.40;99.90
55091;DHT22;40985;53.180;5.800;2023-12-14T15:27:10;4.50;99.90
55091;DHT22;40985;53.180;5.800;2023-12-14T15:29:35;4.40;99.90
55091;DHT22;40985;53.180;5.800;2023-12-14T15:32:01;4.50;99.90
55091;DHT22;40985;53.180;5.800;2023-12-14T15:34:27;4.50;99.90
55091;DHT22;40985;53.180;5.800;2023-12-14T15:36:53;4.50;99.90
55091;DHT22;40985;53.180;5.800;2023-12-14T15:39:19;4.50;99.90
55091;DHT22;40985;53.180;5.800;2023-12-14T15:41:44;4.40;99.90
55091;DHT22;40985;53.180;5.800;2023-12-14T15:44:10;4.50;99.90